Airfield :
LOGIN :

Register | Disclaimer

   EN    FR    IT 

 










Legend :    VFR   Marginal VFR   IFR   Intensive IFR   Very Intensive IFR
Visi :
Ceiling :
>= 8 km
>= 3000ft
5 to 8 km
1000 to 3000 ft
1500m to 5 km
500 to 1000 ft
800 to 1500m
200 to 500 ft
< 800m
< 200 ft
Symbols :   Thunderstorms  Fog  Heavy snow  Heavy precipitations  Wind > 20 kt
SIGMETs :     Misc.  Thunderstorms  Icing  Turbulence  Mountain Waves  Volcanic Ashes






- Airport Elevation : 636 ft


LPBJ - Beja Air Base

CURRENT METAR :
  • 211400Z VRB03KT 9999 SCT030 25/16 Q1014

EXPIRED METARs :
  • 211300Z 22005KT 180V280 9999 SCT030 24/14 Q1014
  • 211200Z 23005KT 160V310 9999 SCT028 22/15 Q1015
  • 211100Z 23005KT 170V310 9999 SCT025 21/15 Q1015
  • 211000Z VRB03KT 9999 SCT015 19/14 Q1015

TAF TAF LPBJ
Valid from the 21 at 12:00 until the 22 at 12:00 UTC


211103Z 2112/2212 23008KT 9999 SCT025
PROB40
TEMPO 2114/2119 VRB15G25KT 2000 TSRA BKN022 SCT025CB
BECMG 2122/2201 VRB02KT 5000 BCFG SCT004
PROB40 2200/2209 0800 FG BKN002
BECMG 2208/2211 35007KT 9999 NSW FEW030



MET'MAP, your aeronautical weather chart ! - Copyright ORBIFLY December 2007 - Disclaimer

ORBIFLY MET'MAP TEAM :

Programming & Development : Alexandra Zaïnal
Original concept : Baudouin d'Aumeries
Technical & hardware support : Manuel Goepfert
Assistance : Marc-Olivier Méhu




SOURCES & CREDITS :

   NOAA